createdAt,value
2017-10-15T00:00:03.690Z,0
2017-10-15T00:01:05.575Z,0
2017-10-15T00:02:07.462Z,0
2017-10-15T00:03:21.621Z,0
2017-10-15T00:04:23.506Z,0
2017-10-15T00:05:25.392Z,0
2017-10-15T00:06:27.276Z,0
2017-10-15T00:07:29.099Z,0
2017-10-15T00:08:30.920Z,0
2017-10-15T00:09:32.804Z,0
2017-10-15T00:10:34.689Z,0
2017-10-15T00:11:36.578Z,0
2017-10-15T00:12:50.729Z,0
2017-10-15T00:13:52.616Z,0
2017-10-15T00:14:54.504Z,0
2017-10-15T00:15:56.385Z,0
2017-10-15T00:16:58.207Z,0
2017-10-15T00:18:00.027Z,0
2017-10-15T00:19:01.874Z,0
2017-10-15T00:20:03.694Z,0
2017-10-15T00:21:05.516Z,0
2017-10-15T00:22:19.710Z,0
2017-10-15T00:23:21.595Z,0
2017-10-15T00:24:23.481Z,0
2017-10-15T00:25:25.364Z,0
2017-10-15T00:26:27.186Z,0
2017-10-15T00:27:29.013Z,0
2017-10-15T00:28:30.897Z,0
2017-10-15T00:29:32.793Z,0
2017-10-15T00:30:34.665Z,0
2017-10-15T00:31:48.833Z,0
2017-10-15T00:32:50.715Z,0
2017-10-15T00:33:52.610Z,0
2017-10-15T00:34:54.493Z,0
2017-10-15T00:35:56.315Z,0
2017-10-15T00:36:58.133Z,0
2017-10-15T00:38:00.017Z,0
2017-10-15T00:39:01.901Z,0
2017-10-15T00:40:03.787Z,0
2017-10-15T00:41:17.940Z,0
2017-10-15T00:42:19.836Z,0
2017-10-15T00:43:21.718Z,0
2017-10-15T00:44:23.603Z,0
2017-10-15T00:45:25.424Z,0
2017-10-15T00:46:27.258Z,0
2017-10-15T00:47:29.138Z,0
2017-10-15T00:48:31.021Z,0
2017-10-15T00:49:32.918Z,0
2017-10-15T00:50:47.078Z,0
2017-10-15T00:51:48.958Z,0
2017-10-15T00:52:50.843Z,0
2017-10-15T00:53:52.729Z,0
2017-10-15T00:54:54.553Z,0
2017-10-15T00:55:56.370Z,0
2017-10-15T00:56:58.262Z,0
2017-10-15T00:58:00.148Z,0
2017-10-15T00:59:02.035Z,0
2017-10-15T01:00:16.192Z,0
2017-10-15T01:01:18.076Z,0
2017-10-15T01:02:19.969Z,0
2017-10-15T01:03:21.853Z,0
2017-10-15T01:04:23.673Z,0
2017-10-15T01:05:25.503Z,0
2017-10-15T01:06:27.385Z,0
2017-10-15T01:07:29.270Z,0
2017-10-15T01:08:31.168Z,0
2017-10-15T01:09:45.322Z,0
2017-10-15T01:10:47.219Z,0
2017-10-15T01:11:49.102Z,0
2017-10-15T01:12:50.985Z,0
2017-10-15T01:13:52.806Z,0
2017-10-15T01:14:54.624Z,0
2017-10-15T01:15:56.507Z,0
2017-10-15T01:16:58.394Z,0
2017-10-15T01:18:00.280Z,0
2017-10-15T01:19:14.434Z,0
2017-10-15T01:20:16.317Z,0
2017-10-15T01:21:18.212Z,0
2017-10-15T01:22:20.097Z,0
2017-10-15T01:23:21.918Z,0
2017-10-15T01:24:23.737Z,0
2017-10-15T01:25:25.621Z,0
2017-10-15T01:26:27.505Z,0
2017-10-15T01:27:29.392Z,0
2017-10-15T01:28:43.549Z,0
2017-10-15T01:29:45.434Z,0
2017-10-15T01:30:47.328Z,0
2017-10-15T01:31:49.209Z,0
2017-10-15T01:32:51.029Z,0
2017-10-15T01:33:52.845Z,0
2017-10-15T01:34:54.690Z,0
2017-10-15T01:35:56.573Z,0
2017-10-15T01:36:58.458Z,0
2017-10-15T01:38:12.662Z,0
2017-10-15T01:39:14.547Z,0
2017-10-15T01:40:16.430Z,0
2017-10-15T01:41:18.312Z,0
2017-10-15T01:42:20.132Z,0
2017-10-15T01:43:21.949Z,0
2017-10-15T01:44:23.834Z,0
2017-10-15T01:45:25.718Z,0
2017-10-15T01:46:27.602Z,0
2017-10-15T01:47:41.756Z,0
2017-10-15T01:48:43.639Z,0
2017-10-15T01:49:45.525Z,0
2017-10-15T01:50:47.406Z,0
2017-10-15T01:51:49.226Z,0
2017-10-15T01:52:51.044Z,0
2017-10-15T01:53:52.927Z,0
2017-10-15T01:54:54.810Z,0
2017-10-15T01:55:56.694Z,0
2017-10-15T01:57:10.847Z,0
2017-10-15T01:58:12.731Z,0
2017-10-15T01:59:14.619Z,0
2017-10-15T02:00:16.499Z,0
2017-10-15T02:01:18.318Z,0
2017-10-15T02:02:20.136Z,0
2017-10-15T02:03:22.031Z,0
2017-10-15T02:04:23.913Z,0
2017-10-15T02:05:25.795Z,0
2017-10-15T02:06:39.996Z,0
2017-10-15T02:07:41.881Z,0
2017-10-15T02:08:43.767Z,0
2017-10-15T02:09:45.644Z,0
2017-10-15T02:10:47.472Z,0
2017-10-15T02:11:49.286Z,0
2017-10-15T02:12:51.170Z,0
2017-10-15T02:13:53.053Z,0
2017-10-15T02:14:54.938Z,0
2017-10-15T02:16:09.088Z,0
2017-10-15T02:17:10.971Z,0
2017-10-15T02:18:12.856Z,0
2017-10-15T02:19:14.734Z,0
2017-10-15T02:20:16.553Z,0
2017-10-15T02:21:18.400Z,0
2017-10-15T02:22:20.210Z,0
2017-10-15T02:23:22.108Z,0
2017-10-15T02:24:23.990Z,0
2017-10-15T02:25:38.143Z,0
2017-10-15T02:26:40.025Z,0
2017-10-15T02:27:41.913Z,0
2017-10-15T02:28:43.792Z,0
2017-10-15T02:29:45.619Z,0
2017-10-15T02:30:47.438Z,0
2017-10-15T02:31:49.338Z,0
2017-10-15T02:32:51.233Z,0
2017-10-15T02:33:53.105Z,0
2017-10-15T02:35:07.258Z,0
2017-10-15T02:36:09.142Z,0
2017-10-15T02:37:11.027Z,0
2017-10-15T02:38:12.908Z,0
2017-10-15T02:39:14.735Z,0
2017-10-15T02:40:16.552Z,0
2017-10-15T02:41:18.435Z,0
2017-10-15T02:42:20.335Z,0
2017-10-15T02:43:22.217Z,0
2017-10-15T02:44:36.370Z,0
2017-10-15T02:45:38.252Z,0
2017-10-15T02:46:40.141Z,0
2017-10-15T02:47:42.020Z,0
2017-10-15T02:48:43.845Z,0
2017-10-15T02:49:45.674Z,0
2017-10-15T02:50:47.554Z,0
2017-10-15T02:51:49.438Z,0
2017-10-15T02:52:51.320Z,0
2017-10-15T02:54:05.472Z,0
2017-10-15T02:55:07.354Z,0
2017-10-15T02:56:09.237Z,0
2017-10-15T02:57:11.121Z,0
2017-10-15T02:58:12.948Z,0
2017-10-15T02:59:14.767Z,0
2017-10-15T03:00:16.652Z,0
2017-10-15T03:01:18.533Z,0
2017-10-15T03:02:20.425Z,0
2017-10-15T03:03:34.579Z,0
2017-10-15T03:04:36.460Z,0
2017-10-15T03:05:38.347Z,0
2017-10-15T03:06:40.226Z,0
2017-10-15T03:07:42.043Z,0
2017-10-15T03:08:43.874Z,0
2017-10-15T03:09:45.754Z,0
2017-10-15T03:10:47.639Z,0
2017-10-15T03:11:49.520Z,0
2017-10-15T03:13:03.671Z,0
2017-10-15T03:14:05.549Z,0
2017-10-15T03:15:07.445Z,0
2017-10-15T03:16:09.319Z,0
2017-10-15T03:17:11.146Z,0
2017-10-15T03:18:12.963Z,0
2017-10-15T03:19:14.844Z,0
2017-10-15T03:20:16.725Z,0
2017-10-15T03:21:18.622Z,0
2017-10-15T03:22:32.770Z,0
2017-10-15T03:23:34.652Z,0
2017-10-15T03:24:36.534Z,0
2017-10-15T03:25:38.411Z,0
2017-10-15T03:26:40.227Z,0
2017-10-15T03:27:42.046Z,0
2017-10-15T03:28:43.926Z,0
2017-10-15T03:29:45.813Z,0
2017-10-15T03:30:47.693Z,0
2017-10-15T03:32:01.848Z,0
2017-10-15T03:33:03.730Z,0
2017-10-15T03:34:05.613Z,0
2017-10-15T03:35:07.492Z,0
2017-10-15T03:36:09.307Z,0
2017-10-15T03:37:11.129Z,0
2017-10-15T03:38:13.004Z,0
2017-10-15T03:39:14.887Z,0
2017-10-15T03:40:16.765Z,0
2017-10-15T03:41:30.969Z,0
2017-10-15T03:42:32.852Z,0
2017-10-15T03:43:34.754Z,0
2017-10-15T03:44:36.636Z,0
2017-10-15T03:45:38.454Z,0
2017-10-15T03:46:40.272Z,0
2017-10-15T03:47:42.152Z,0
2017-10-15T03:48:44.036Z,0
2017-10-15T03:49:45.917Z,0
2017-10-15T03:51:00.069Z,0
2017-10-15T03:52:01.952Z,0
2017-10-15T03:53:03.840Z,0
2017-10-15T03:54:05.718Z,0
2017-10-15T03:55:07.537Z,0
2017-10-15T03:56:09.353Z,0
2017-10-15T03:57:11.236Z,0
2017-10-15T03:58:13.121Z,0
2017-10-15T03:59:15.008Z,0
2017-10-15T04:00:29.156Z,0
2017-10-15T04:01:31.037Z,0
2017-10-15T04:02:32.925Z,0
2017-10-15T04:03:34.806Z,0
2017-10-15T04:04:36.622Z,0
2017-10-15T04:05:38.449Z,0
2017-10-15T04:06:40.333Z,0
2017-10-15T04:07:42.216Z,0
2017-10-15T04:08:44.101Z,0
2017-10-15T04:09:58.252Z,0
2017-10-15T04:11:00.134Z,0
2017-10-15T04:12:02.017Z,0
2017-10-15T04:13:03.909Z,0
2017-10-15T04:14:05.725Z,0
2017-10-15T04:15:07.552Z,0
2017-10-15T04:16:09.431Z,0
2017-10-15T04:17:11.321Z,0
2017-10-15T04:18:13.201Z,0
2017-10-15T04:19:27.354Z,0
2017-10-15T04:20:29.253Z,0
2017-10-15T04:21:31.121Z,0
2017-10-15T04:22:33.002Z,0
2017-10-15T04:23:34.820Z,0
2017-10-15T04:24:36.635Z,0
2017-10-15T04:25:38.518Z,0
2017-10-15T04:26:40.404Z,0
2017-10-15T04:27:42.284Z,0
2017-10-15T04:28:56.435Z,0
2017-10-15T04:29:58.319Z,0
2017-10-15T04:31:00.204Z,0
2017-10-15T04:32:02.102Z,0
2017-10-15T04:33:03.933Z,0
2017-10-15T04:34:05.752Z,0
2017-10-15T04:35:07.627Z,0
2017-10-15T04:36:09.522Z,0
2017-10-15T04:37:11.402Z,0
2017-10-15T04:38:25.558Z,0
2017-10-15T04:39:27.440Z,0
2017-10-15T04:40:29.330Z,0
2017-10-15T04:41:31.211Z,0
2017-10-15T04:42:33.029Z,0
2017-10-15T04:43:34.845Z,0
2017-10-15T04:44:36.728Z,0
2017-10-15T04:45:38.628Z,0
2017-10-15T04:46:40.504Z,0
2017-10-15T04:47:54.658Z,0
2017-10-15T04:48:56.541Z,0
2017-10-15T04:49:58.425Z,0
2017-10-15T04:51:00.309Z,0
2017-10-15T04:52:02.125Z,0
2017-10-15T04:53:03.943Z,0
2017-10-15T04:54:05.829Z,0
2017-10-15T04:55:07.714Z,4
2017-10-15T04:56:09.605Z,4
2017-10-15T04:57:23.759Z,4
2017-10-15T04:58:25.642Z,4
2017-10-15T04:59:27.526Z,4
2017-10-15T05:00:29.410Z,8
2017-10-15T05:01:31.227Z,8
2017-10-15T05:02:33.049Z,12
2017-10-15T05:03:34.935Z,12
2017-10-15T05:04:36.819Z,12
2017-10-15T05:05:38.703Z,16
2017-10-15T05:06:52.906Z,20
2017-10-15T05:07:54.791Z,24
2017-10-15T05:08:56.674Z,28
2017-10-15T05:09:58.557Z,32
2017-10-15T05:11:00.371Z,36
2017-10-15T05:12:02.197Z,44
2017-10-15T05:13:04.089Z,52
2017-10-15T05:14:05.975Z,60
2017-10-15T05:15:07.858Z,72
2017-10-15T05:16:22.063Z,84
2017-10-15T05:17:23.947Z,96
2017-10-15T05:18:25.834Z,108
2017-10-15T05:19:27.716Z,120
2017-10-15T05:20:29.534Z,136
2017-10-15T05:21:31.365Z,156
2017-10-15T05:22:33.245Z,184
2017-10-15T05:23:35.135Z,208
2017-10-15T05:24:37.019Z,228
2017-10-15T05:25:51.176Z,264
2017-10-15T05:26:53.063Z,288
2017-10-15T05:27:54.947Z,320
2017-10-15T05:28:56.837Z,356
2017-10-15T05:29:58.649Z,392
2017-10-15T05:31:00.471Z,436
2017-10-15T05:32:02.356Z,476
2017-10-15T05:33:04.243Z,524
2017-10-15T05:34:06.125Z,572
2017-10-15T05:35:20.279Z,632
2017-10-15T05:36:22.165Z,676
2017-10-15T05:37:24.048Z,724
2017-10-15T05:38:25.930Z,776
2017-10-15T05:39:27.751Z,816
2017-10-15T05:40:29.570Z,864
2017-10-15T05:41:31.454Z,908
2017-10-15T05:42:33.337Z,960
2017-10-15T05:43:35.223Z,1004
2017-10-15T05:44:49.382Z,1052
2017-10-15T05:45:51.264Z,1092
2017-10-15T05:46:53.149Z,1136
2017-10-15T05:47:55.027Z,1168
2017-10-15T05:48:56.858Z,1204
2017-10-15T05:49:58.702Z,1236
2017-10-15T05:51:00.576Z,1272
2017-10-15T05:52:02.463Z,1308
2017-10-15T05:53:04.346Z,1348
2017-10-15T05:54:18.505Z,1400
2017-10-15T05:55:20.391Z,1444
2017-10-15T05:56:22.275Z,1496
2017-10-15T05:57:24.158Z,1540
2017-10-15T05:58:25.978Z,1588
2017-10-15T05:59:27.799Z,1628
2017-10-15T06:00:29.682Z,1664
2017-10-15T06:01:31.569Z,1692
2017-10-15T06:02:33.450Z,1720
2017-10-15T06:03:47.656Z,1752
2017-10-15T06:04:49.541Z,1796
2017-10-15T06:05:51.432Z,1836
2017-10-15T06:06:53.313Z,1884
2017-10-15T06:07:55.135Z,1924
2017-10-15T06:08:56.956Z,1972
2017-10-15T06:09:58.841Z,2024
2017-10-15T06:11:00.743Z,2072
2017-10-15T06:12:02.613Z,2116
2017-10-15T06:13:16.818Z,2160
2017-10-15T06:14:18.711Z,2192
2017-10-15T06:15:20.598Z,2224
2017-10-15T06:16:22.485Z,2252
2017-10-15T06:17:24.307Z,2284
2017-10-15T06:18:26.132Z,2308
2017-10-15T06:19:28.017Z,2332
2017-10-15T06:20:29.909Z,2356
2017-10-15T06:21:31.792Z,2380
2017-10-15T06:22:46.001Z,2412
2017-10-15T06:23:47.887Z,2436
2017-10-15T06:24:49.774Z,2464
2017-10-15T06:25:51.662Z,2488
2017-10-15T06:26:53.485Z,2508
2017-10-15T06:27:55.311Z,2532
2017-10-15T06:28:57.194Z,2552
2017-10-15T06:29:59.085Z,2572
2017-10-15T06:31:00.971Z,2592
2017-10-15T06:32:15.129Z,2616
2017-10-15T06:33:17.018Z,2636
2017-10-15T06:34:18.905Z,2656
2017-10-15T06:35:20.795Z,2676
2017-10-15T06:36:22.622Z,2696
2017-10-15T06:37:24.464Z,2716
2017-10-15T06:38:26.337Z,2728
2017-10-15T06:39:28.238Z,2748
2017-10-15T06:40:30.130Z,2764
2017-10-15T06:41:44.283Z,2780
2017-10-15T06:42:46.171Z,2792
2017-10-15T06:43:48.061Z,2804
2017-10-15T06:44:49.949Z,2824
2017-10-15T06:45:51.773Z,2836
2017-10-15T06:46:53.596Z,2844
2017-10-15T06:47:55.482Z,2848
2017-10-15T06:48:57.384Z,2852
2017-10-15T06:49:59.277Z,2872
2017-10-15T06:51:13.435Z,2892
2017-10-15T06:52:15.323Z,2904
2017-10-15T06:53:17.211Z,2920
2017-10-15T06:54:19.098Z,2932
2017-10-15T06:55:20.922Z,2952
2017-10-15T06:56:22.759Z,2960
2017-10-15T06:57:24.657Z,2972
2017-10-15T06:58:26.550Z,2984
2017-10-15T06:59:28.442Z,2992
2017-10-15T07:00:42.635Z,3008
2017-10-15T07:01:44.561Z,3016
2017-10-15T07:02:46.465Z,3024
2017-10-15T07:03:48.345Z,3032
2017-10-15T07:04:50.173Z,3044
2017-10-15T07:05:51.996Z,3052
2017-10-15T07:06:54.155Z,3064
2017-10-15T07:07:56.088Z,3080
2017-10-15T07:08:57.983Z,3096
2017-10-15T07:10:12.211Z,3116
2017-10-15T07:11:14.102Z,3124
2017-10-15T07:12:16.317Z,3124
2017-10-15T07:13:18.197Z,3132
2017-10-15T07:14:20.022Z,3144
2017-10-15T07:15:21.842Z,3152
2017-10-15T07:16:23.734Z,3164
2017-10-15T07:17:25.620Z,3168
2017-10-15T07:18:27.507Z,3184
2017-10-15T07:19:41.670Z,3196
2017-10-15T07:20:43.592Z,3200
2017-10-15T07:21:45.459Z,3208
2017-10-15T07:22:47.363Z,3212
2017-10-15T07:23:49.166Z,3220
2017-10-15T07:24:50.991Z,3224
2017-10-15T07:25:52.881Z,3232
2017-10-15T07:26:54.772Z,3232
2017-10-15T07:27:56.663Z,3244
2017-10-15T07:29:10.823Z,3252
2017-10-15T07:30:12.712Z,3256
2017-10-15T07:31:14.613Z,3264
2017-10-15T07:32:16.502Z,3268
2017-10-15T07:33:18.326Z,3276
2017-10-15T07:34:20.149Z,3280
2017-10-15T07:35:22.039Z,3292
2017-10-15T07:36:23.929Z,3296
2017-10-15T07:37:25.819Z,3304
2017-10-15T07:38:40.108Z,3308
2017-10-15T07:39:42.001Z,3312
2017-10-15T07:40:43.890Z,3316
2017-10-15T07:41:45.777Z,3316
2017-10-15T07:42:47.601Z,3316
2017-10-15T07:43:49.428Z,3328
2017-10-15T07:44:51.316Z,3332
2017-10-15T07:45:53.407Z,3336
2017-10-15T07:46:55.296Z,3340
2017-10-15T07:48:09.455Z,3348
2017-10-15T07:49:11.345Z,3356
2017-10-15T07:50:13.234Z,3356
2017-10-15T07:51:15.122Z,3356
2017-10-15T07:52:16.949Z,3356
2017-10-15T07:53:18.777Z,3360
2017-10-15T07:54:20.665Z,3356
2017-10-15T07:55:22.559Z,3352
2017-10-15T07:56:24.448Z,3356
2017-10-15T07:57:38.609Z,3360
2017-10-15T07:58:40.501Z,3356
2017-10-15T07:59:42.391Z,3356
2017-10-15T08:00:44.278Z,3360
2017-10-15T08:01:46.116Z,3360
2017-10-15T08:02:47.941Z,3364
2017-10-15T08:03:49.832Z,3368
2017-10-15T08:04:51.722Z,3368
2017-10-15T08:05:53.613Z,3312
2017-10-15T08:07:07.773Z,3316
2017-10-15T08:08:09.664Z,3320
2017-10-15T08:09:11.552Z,3320
2017-10-15T08:10:13.443Z,3320
2017-10-15T08:11:15.273Z,3320
2017-10-15T08:12:17.095Z,3320
2017-10-15T08:13:18.992Z,3320
2017-10-15T08:14:20.878Z,3324
2017-10-15T08:15:22.770Z,3324
2017-10-15T08:16:36.979Z,3324
2017-10-15T08:17:38.872Z,3324
2017-10-15T08:18:40.760Z,3328
2017-10-15T08:19:42.660Z,3328
2017-10-15T08:20:44.479Z,3332
2017-10-15T08:21:46.309Z,3328
2017-10-15T08:22:48.198Z,3328
2017-10-15T08:23:50.118Z,3324
2017-10-15T08:24:52.008Z,3320
2017-10-15T08:26:06.166Z,3320
2017-10-15T08:27:08.099Z,3320
2017-10-15T08:28:10.070Z,3308
2017-10-15T08:29:11.959Z,3300
2017-10-15T08:30:13.787Z,3296
2017-10-15T08:31:15.621Z,3292
2017-10-15T08:32:17.510Z,3296
2017-10-15T08:33:19.399Z,3312
2017-10-15T08:34:21.288Z,3328
2017-10-15T08:35:35.449Z,3336
2017-10-15T08:36:37.338Z,3344
2017-10-15T08:37:39.228Z,3344
2017-10-15T08:38:41.119Z,3348
2017-10-15T08:39:42.944Z,3352
2017-10-15T08:40:44.779Z,3356
2017-10-15T08:41:46.671Z,3356
2017-10-15T08:42:48.560Z,3356
2017-10-15T08:43:50.465Z,3356
2017-10-15T08:45:04.621Z,3356
2017-10-15T08:46:06.534Z,3360
2017-10-15T08:47:08.404Z,3356
2017-10-15T08:48:10.293Z,3360
2017-10-15T08:49:12.119Z,3364
2017-10-15T08:50:13.943Z,3372
2017-10-15T08:51:15.831Z,3376
2017-10-15T08:52:17.735Z,3376
2017-10-15T08:53:19.617Z,3384
2017-10-15T08:54:33.779Z,3380
2017-10-15T08:55:35.679Z,3384
2017-10-15T08:56:37.557Z,3384
2017-10-15T08:57:39.447Z,3388
2017-10-15T08:58:41.270Z,3396
2017-10-15T08:59:43.099Z,3400
2017-10-15T09:00:44.987Z,3400
2017-10-15T09:01:46.890Z,3400
2017-10-15T09:02:48.788Z,3404
2017-10-15T09:04:02.951Z,3412
2017-10-15T09:05:04.842Z,3416
2017-10-15T09:06:06.731Z,3424
2017-10-15T09:07:08.619Z,3420
2017-10-15T09:08:10.447Z,3420
2017-10-15T09:09:12.273Z,3416
2017-10-15T09:10:14.170Z,3408
2017-10-15T09:11:16.072Z,3408
2017-10-15T09:12:17.961Z,3400
2017-10-15T09:13:32.124Z,3404
2017-10-15T09:14:34.017Z,3396
2017-10-15T09:15:35.937Z,3392
2017-10-15T09:16:37.802Z,3392
2017-10-15T09:17:39.627Z,3396
2017-10-15T09:18:41.452Z,3400
2017-10-15T09:19:43.343Z,3396
2017-10-15T09:20:45.235Z,3396
2017-10-15T09:21:47.125Z,3400
2017-10-15T09:23:01.349Z,3408
2017-10-15T09:24:03.237Z,3412
2017-10-15T09:25:05.130Z,3400
2017-10-15T09:26:07.022Z,3400
2017-10-15T09:27:08.848Z,3408
2017-10-15T09:28:10.673Z,3416
2017-10-15T09:29:12.563Z,3432
2017-10-15T09:30:14.455Z,3436
2017-10-15T09:31:16.345Z,3436
2017-10-15T09:32:30.508Z,3428
2017-10-15T09:33:32.398Z,3412
2017-10-15T09:34:34.290Z,3388
2017-10-15T09:35:36.175Z,3376
2017-10-15T09:36:38.003Z,3372
2017-10-15T09:37:39.829Z,3356
2017-10-15T09:38:41.716Z,3356
2017-10-15T09:39:43.610Z,3364
2017-10-15T09:40:45.499Z,3376
2017-10-15T09:41:59.660Z,3368
2017-10-15T09:43:01.551Z,3360
2017-10-15T09:44:03.444Z,3332
2017-10-15T09:45:05.336Z,3316
2017-10-15T09:46:07.171Z,3316
2017-10-15T09:47:08.997Z,3316
2017-10-15T09:48:10.885Z,3312
2017-10-15T09:49:12.776Z,3320
2017-10-15T09:50:14.680Z,3324
2017-10-15T09:51:28.848Z,3324
2017-10-15T09:52:30.739Z,3312
2017-10-15T09:53:32.628Z,3276
2017-10-15T09:54:34.520Z,3284
2017-10-15T09:55:36.347Z,3296
2017-10-15T09:56:38.171Z,3284
2017-10-15T09:57:40.063Z,3296
2017-10-15T09:58:41.957Z,3312
2017-10-15T09:59:43.848Z,3308
2017-10-15T10:00:58.012Z,3328
2017-10-15T10:01:59.905Z,3332
2017-10-15T10:03:01.795Z,3332
2017-10-15T10:04:03.687Z,3344
2017-10-15T10:05:05.513Z,3352
2017-10-15T10:06:07.339Z,3360
2017-10-15T10:07:09.229Z,3368
2017-10-15T10:08:11.121Z,3392
2017-10-15T10:09:13.012Z,3396
2017-10-15T10:10:27.178Z,3412
2017-10-15T10:11:29.069Z,3404
2017-10-15T10:12:30.961Z,3428
2017-10-15T10:13:32.853Z,3424
2017-10-15T10:14:34.683Z,3420
2017-10-15T10:15:36.532Z,3436
2017-10-15T10:16:38.421Z,3456
2017-10-15T10:17:40.323Z,3464
2017-10-15T10:18:42.218Z,3456
2017-10-15T10:19:56.384Z,3464
2017-10-15T10:20:58.277Z,3488
2017-10-15T10:22:00.174Z,3516
2017-10-15T10:23:02.065Z,3524
2017-10-15T10:24:03.891Z,3536
2017-10-15T10:25:05.717Z,3536
2017-10-15T10:26:07.615Z,3536
2017-10-15T10:27:09.509Z,3540
2017-10-15T10:28:11.397Z,3548
2017-10-15T10:29:25.560Z,3560
2017-10-15T10:30:27.469Z,3568
2017-10-15T10:31:29.368Z,3564
2017-10-15T10:32:31.257Z,3564
2017-10-15T10:33:33.083Z,3568
2017-10-15T10:34:34.917Z,3572
2017-10-15T10:35:36.808Z,3580
2017-10-15T10:36:38.704Z,3576
2017-10-15T10:37:40.592Z,3564
2017-10-15T10:38:54.756Z,3588
2017-10-15T10:39:56.659Z,3584
2017-10-15T10:40:58.553Z,3592
2017-10-15T10:42:00.449Z,3596
2017-10-15T10:43:02.281Z,3612
2017-10-15T10:44:04.113Z,3604
2017-10-15T10:45:06.002Z,3616
2017-10-15T10:46:07.893Z,3612
2017-10-15T10:47:09.785Z,3616
2017-10-15T10:48:24.007Z,3608
2017-10-15T10:49:25.916Z,3608
2017-10-15T10:50:27.802Z,3620
2017-10-15T10:51:30.035Z,3624
2017-10-15T10:52:31.827Z,3628
2017-10-15T10:53:33.672Z,3628
2017-10-15T10:54:35.932Z,3628
2017-10-15T10:55:37.829Z,3620
2017-10-15T10:56:39.751Z,3624
2017-10-15T10:57:54.016Z,3628
2017-10-15T10:58:56.250Z,3604
2017-10-15T10:59:58.470Z,3596
2017-10-15T11:01:00.384Z,3600
2017-10-15T11:02:02.242Z,3596
2017-10-15T11:03:04.491Z,3584
2017-10-15T11:04:06.729Z,3592
2017-10-15T11:05:08.955Z,3600
2017-10-15T11:06:10.855Z,3600
2017-10-15T11:07:25.042Z,3608
2017-10-15T11:08:27.038Z,3604
2017-10-15T11:09:28.905Z,3584
2017-10-15T11:10:30.794Z,3604
2017-10-15T11:11:32.635Z,3596
2017-10-15T11:12:34.463Z,3584
2017-10-15T11:13:36.354Z,3584
2017-10-15T11:14:38.278Z,3576
2017-10-15T11:15:40.168Z,3564
2017-10-15T11:16:54.332Z,3564
2017-10-15T11:17:56.244Z,3564
2017-10-15T11:18:58.115Z,3564
2017-10-15T11:20:00.007Z,3552
2017-10-15T11:21:01.832Z,3552
2017-10-15T11:22:03.669Z,3556
2017-10-15T11:23:05.568Z,3552
2017-10-15T11:24:07.460Z,3552
2017-10-15T11:25:09.364Z,3528
2017-10-15T11:26:23.580Z,3532
2017-10-15T11:27:25.472Z,3524
2017-10-15T11:28:27.362Z,3524
2017-10-15T11:29:29.254Z,3528
2017-10-15T11:30:31.098Z,3524
2017-10-15T11:31:32.923Z,3524
2017-10-15T11:32:34.816Z,3520
2017-10-15T11:33:36.710Z,3512
2017-10-15T11:34:38.600Z,3508
2017-10-15T11:35:52.767Z,3488
2017-10-15T11:36:54.660Z,3480
2017-10-15T11:37:56.553Z,3468
2017-10-15T11:38:58.446Z,3476
2017-10-15T11:40:00.271Z,3464
2017-10-15T11:41:02.097Z,3452
2017-10-15T11:42:03.990Z,3456
2017-10-15T11:43:05.882Z,3452
2017-10-15T11:44:07.778Z,3444
2017-10-15T11:45:21.941Z,3436
2017-10-15T11:46:23.837Z,3428
2017-10-15T11:47:25.730Z,3424
2017-10-15T11:48:27.622Z,3416
2017-10-15T11:49:29.448Z,3420
2017-10-15T11:50:31.277Z,3412
2017-10-15T11:51:33.170Z,3404
2017-10-15T11:52:35.059Z,3396
2017-10-15T11:53:36.953Z,3388
2017-10-15T11:54:51.114Z,3388
2017-10-15T11:55:53.006Z,3384
2017-10-15T11:56:54.897Z,3372
2017-10-15T11:57:56.787Z,3364
2017-10-15T11:58:58.615Z,3368
2017-10-15T12:00:00.440Z,3364
2017-10-15T12:01:02.334Z,3360
2017-10-15T12:02:04.228Z,3348
2017-10-15T12:03:06.118Z,3348
2017-10-15T12:04:20.293Z,3332
2017-10-15T12:05:22.189Z,3332
2017-10-15T12:06:24.078Z,3328
2017-10-15T12:07:25.969Z,3332
2017-10-15T12:08:27.809Z,3328
2017-10-15T12:09:29.628Z,3320
2017-10-15T12:10:31.516Z,3320
2017-10-15T12:11:33.408Z,3312
2017-10-15T12:12:35.297Z,3312
2017-10-15T12:13:49.463Z,3316
2017-10-15T12:14:51.353Z,3312
2017-10-15T12:15:53.242Z,3308
2017-10-15T12:16:55.132Z,3312
2017-10-15T12:17:56.969Z,3316
2017-10-15T12:18:58.796Z,3316
2017-10-15T12:20:00.684Z,3304
2017-10-15T12:21:02.576Z,3304
2017-10-15T12:22:04.464Z,3304
2017-10-15T12:23:18.687Z,3304
2017-10-15T12:24:20.578Z,3312
2017-10-15T12:25:22.468Z,3304
2017-10-15T12:26:24.357Z,3300
2017-10-15T12:27:26.186Z,3292
2017-10-15T12:28:28.014Z,3300
2017-10-15T12:29:29.898Z,3300
2017-10-15T12:30:31.800Z,3292
2017-10-15T12:31:33.690Z,3296
2017-10-15T12:32:47.854Z,3288
2017-10-15T12:33:49.771Z,3292
2017-10-15T12:34:51.687Z,3288
2017-10-15T12:35:53.576Z,3288
2017-10-15T12:36:55.404Z,3284
2017-10-15T12:37:57.230Z,3284
2017-10-15T12:38:59.118Z,3284
2017-10-15T12:40:01.014Z,3272
2017-10-15T12:41:02.904Z,3276
2017-10-15T12:42:17.084Z,3272
2017-10-15T12:43:18.958Z,3268
2017-10-15T12:44:20.847Z,3272
2017-10-15T12:45:22.738Z,3268
2017-10-15T12:46:24.565Z,3272
2017-10-15T12:47:26.394Z,3276
2017-10-15T12:48:28.286Z,3276
2017-10-15T12:49:30.174Z,3280
2017-10-15T12:50:32.059Z,3272
2017-10-15T12:51:46.224Z,3272
2017-10-15T12:52:48.114Z,3276
2017-10-15T12:53:50.006Z,3276
2017-10-15T12:54:51.895Z,3280
2017-10-15T12:55:53.721Z,3280
2017-10-15T12:56:55.554Z,3276
2017-10-15T12:57:57.380Z,3280
2017-10-15T12:58:59.211Z,3272
2017-10-15T13:00:01.039Z,3272
2017-10-15T13:01:15.202Z,3268
2017-10-15T13:02:17.094Z,3264
2017-10-15T13:03:18.982Z,3264
2017-10-15T13:04:20.869Z,3256
2017-10-15T13:05:22.699Z,3248
2017-10-15T13:06:24.528Z,3244
2017-10-15T13:07:26.379Z,3244
2017-10-15T13:08:28.282Z,3240
2017-10-15T13:09:30.184Z,3236
2017-10-15T13:10:44.337Z,3228
2017-10-15T13:11:46.230Z,3224
2017-10-15T13:12:48.119Z,3224
2017-10-15T13:13:50.007Z,3224
2017-10-15T13:14:51.837Z,3216
2017-10-15T13:15:53.676Z,3212
2017-10-15T13:16:55.565Z,3212
2017-10-15T13:17:57.458Z,3204
2017-10-15T13:18:59.348Z,3200
2017-10-15T13:20:13.526Z,3204
2017-10-15T13:21:15.423Z,3192
2017-10-15T13:22:17.310Z,3192
2017-10-15T13:23:19.200Z,3192
2017-10-15T13:24:21.029Z,3196
2017-10-15T13:25:22.857Z,3180
2017-10-15T13:26:24.747Z,3180
2017-10-15T13:27:26.639Z,3172
2017-10-15T13:28:28.530Z,3172
2017-10-15T13:29:42.695Z,3168
2017-10-15T13:30:44.585Z,3184
2017-10-15T13:31:46.475Z,3172
2017-10-15T13:32:48.365Z,3176
2017-10-15T13:33:50.186Z,3164
2017-10-15T13:34:52.010Z,3160
2017-10-15T13:35:53.902Z,3156
2017-10-15T13:36:55.796Z,3160
2017-10-15T13:37:57.683Z,3164
2017-10-15T13:39:11.905Z,3152
2017-10-15T13:40:13.800Z,3152
2017-10-15T13:41:15.689Z,3148
2017-10-15T13:42:17.587Z,3144
2017-10-15T13:43:19.414Z,3140
2017-10-15T13:44:21.240Z,3136
2017-10-15T13:45:23.130Z,3140
2017-10-15T13:46:25.023Z,3140
2017-10-15T13:47:26.913Z,3132
2017-10-15T13:48:41.077Z,3140
2017-10-15T13:49:42.969Z,3152
2017-10-15T13:50:44.859Z,3144
2017-10-15T13:51:46.749Z,3136
2017-10-15T13:52:48.575Z,3140
2017-10-15T13:53:50.402Z,3132
2017-10-15T13:54:52.290Z,3128
2017-10-15T13:55:54.183Z,3132
2017-10-15T13:56:56.076Z,3136
2017-10-15T13:58:10.240Z,3132
2017-10-15T13:59:12.130Z,3132
2017-10-15T14:00:14.019Z,3136
2017-10-15T14:01:15.914Z,3136
2017-10-15T14:02:17.736Z,3132
2017-10-15T14:03:19.563Z,3124
2017-10-15T14:04:21.457Z,3124
2017-10-15T14:05:23.349Z,3116
2017-10-15T14:06:25.239Z,3116
2017-10-15T14:07:39.401Z,3108
2017-10-15T14:08:41.297Z,3112
2017-10-15T14:09:43.189Z,3100
2017-10-15T14:10:45.090Z,3100
2017-10-15T14:11:46.918Z,3088
2017-10-15T14:12:48.751Z,3072
2017-10-15T14:13:50.637Z,3064
2017-10-15T14:14:52.528Z,3052
2017-10-15T14:15:54.432Z,3044
2017-10-15T14:17:08.596Z,3040
2017-10-15T14:18:10.488Z,3028
2017-10-15T14:19:12.380Z,3012
2017-10-15T14:20:14.271Z,3012
2017-10-15T14:21:16.097Z,3004
2017-10-15T14:22:17.934Z,2996
2017-10-15T14:23:19.821Z,2992
2017-10-15T14:24:21.718Z,2988
2017-10-15T14:25:23.609Z,2976
2017-10-15T14:26:37.772Z,2968
2017-10-15T14:27:39.662Z,2968
2017-10-15T14:28:41.565Z,2964
2017-10-15T14:29:43.455Z,2956
2017-10-15T14:30:45.286Z,2948
2017-10-15T14:31:47.113Z,2940
2017-10-15T14:32:49.006Z,2912